sensor_id;sensor_type;location;lat;lon;timestamp;temperature;humidity
16158;DHT22;8184;60.256;18.694;2022-10-15T00:01:03;9.30;99.90
16158;DHT22;8184;60.256;18.694;2022-10-15T00:03:35;9.30;99.90
16158;DHT22;8184;60.256;18.694;2022-10-15T00:06:05;9.30;99.90
16158;DHT22;8184;60.256;18.694;2022-10-15T00:08:33;9.30;99.90
16158;DHT22;8184;60.256;18.694;2022-10-15T00:11:02;9.40;99.90
16158;DHT22;8184;60.256;18.694;2022-10-15T00:13:33;9.40;99.90
16158;DHT22;8184;60.256;18.694;2022-10-15T00:16:08;9.30;99.90
16158;DHT22;8184;60.256;18.694;2022-10-15T00:18:37;9.40;99.90
16158;DHT22;8184;60.256;18.694;2022-10-15T00:21:06;9.40;99.90
16158;DHT22;8184;60.256;18.694;2022-10-15T00:23:34;9.40;99.90
16158;DHT22;8184;60.256;18.694;2022-10-15T00:26:03;9.50;99.90
16158;DHT22;8184;60.256;18.694;2022-10-15T00:28:32;9.40;99.90
16158;DHT22;8184;60.256;18.694;2022-10-15T00:31:01;9.40;99.90
16158;DHT22;8184;60.256;18.694;2022-10-15T00:33:35;9.50;99.90
16158;DHT22;8184;60.256;18.694;2022-10-15T00:36:04;9.50;99.90
16158;DHT22;8184;60.256;18.694;2022-10-15T00:38:33;9.50;99.90
16158;DHT22;8184;60.256;18.694;2022-10-15T00:41:02;9.50;99.90
16158;DHT22;8184;60.256;18.694;2022-10-15T00:43:41;9.50;99.90
16158;DHT22;8184;60.256;18.694;2022-10-15T00:46:20;9.50;99.90
16158;DHT22;8184;60.256;18.694;2022-10-15T00:48:50;9.50;99.90
16158;DHT22;8184;60.256;18.694;2022-10-15T00:51:23;9.50;99.90
16158;DHT22;8184;60.256;18.694;2022-10-15T00:53:53;9.60;99.90
16158;DHT22;8184;60.256;18.694;2022-10-15T00:56:21;9.50;99.90
16158;DHT22;8184;60.256;18.694;2022-10-15T00:58:50;9.50;99.90
16158;DHT22;8184;60.256;18.694;2022-10-15T01:01:19;9.50;99.90
16158;DHT22;8184;60.256;18.694;2022-10-15T01:03:50;9.50;99.90
16158;DHT22;8184;60.256;18.694;2022-10-15T01:06:18;9.50;99.90
16158;DHT22;8184;60.256;18.694;2022-10-15T01:08:46;9.50;99.90
16158;DHT22;8184;60.256;18.694;2022-10-15T01:11:23;9.50;99.90
16158;DHT22;8184;60.256;18.694;2022-10-15T01:13:53;9.60;99.90
16158;DHT22;8184;60.256;18.694;2022-10-15T01:16:28;9.50;99.90
16158;DHT22;8184;60.256;18.694;2022-10-15T01:19:03;9.60;99.90
16158;DHT22;8184;60.256;18.694;2022-10-15T01:21:33;9.60;99.90
16158;DHT22;8184;60.256;18.694;2022-10-15T01:24:13;9.60;99.90
16158;DHT22;8184;60.256;18.694;2022-10-15T01:29:40;9.60;99.90
16158;DHT22;8184;60.256;18.694;2022-10-15T01:32:14;9.60;99.90
16158;DHT22;8184;60.256;18.694;2022-10-15T01:34:45;9.60;99.90
16158;DHT22;8184;60.256;18.694;2022-10-15T01:37:16;9.60;99.90
16158;DHT22;8184;60.256;18.694;2022-10-15T01:39:47;9.60;99.90
16158;DHT22;8184;60.256;18.694;2022-10-15T01:42:17;9.60;99.90
16158;DHT22;8184;60.256;18.694;2022-10-15T01:44:48;9.60;99.90
16158;DHT22;8184;60.256;18.694;2022-10-15T01:47:20;9.60;99.90
16158;DHT22;8184;60.256;18.694;2022-10-15T01:49:50;9.60;99.90
16158;DHT22;8184;60.256;18.694;2022-10-15T01:52:20;9.60;99.90
16158;DHT22;8184;60.256;18.694;2022-10-15T01:54:49;9.60;99.90
16158;DHT22;8184;60.256;18.694;2022-10-15T01:57:19;9.60;99.90
16158;DHT22;8184;60.256;18.694;2022-10-15T01:59:48;9.70;99.90
16158;DHT22;8184;60.256;18.694;2022-10-15T02:02:16;9.60;99.90
16158;DHT22;8184;60.256;18.694;2022-10-15T02:04:46;9.70;99.90
16158;DHT22;8184;60.256;18.694;2022-10-15T02:07:15;9.60;99.90
16158;DHT22;8184;60.256;18.694;2022-10-15T02:09:47;9.60;99.90
16158;DHT22;8184;60.256;18.694;2022-10-15T02:12:21;9.70;99.90
16158;DHT22;8184;60.256;18.694;2022-10-15T02:14:53;9.60;99.90
16158;DHT22;8184;60.256;18.694;2022-10-15T02:17:23;9.70;99.90
16158;DHT22;8184;60.256;18.694;2022-10-15T02:19:56;9.70;99.90
16158;DHT22;8184;60.256;18.694;2022-10-15T02:22:27;9.70;99.90
16158;DHT22;8184;60.256;18.694;2022-10-15T02:24:57;9.70;99.90
16158;DHT22;8184;60.256;18.694;2022-10-15T02:27:28;9.70;99.90
16158;DHT22;8184;60.256;18.694;2022-10-15T02:29:57;9.80;99.90
16158;DHT22;8184;60.256;18.694;2022-10-15T02:32:27;9.80;99.90
16158;DHT22;8184;60.256;18.694;2022-10-15T02:34:58;9.80;99.90
16158;DHT22;8184;60.256;18.694;2022-10-15T02:37:27;9.80;99.90
16158;DHT22;8184;60.256;18.694;2022-10-15T02:39:56;9.80;99.90
16158;DHT22;8184;60.256;18.694;2022-10-15T02:42:24;9.80;99.90
16158;DHT22;8184;60.256;18.694;2022-10-15T02:44:52;9.90;99.90
16158;DHT22;8184;60.256;18.694;2022-10-15T02:47:20;9.80;99.90
16158;DHT22;8184;60.256;18.694;2022-10-15T02:49:53;9.90;99.90
16158;DHT22;8184;60.256;18.694;2022-10-15T02:52:23;9.90;99.90
16158;DHT22;8184;60.256;18.694;2022-10-15T02:54:51;9.80;99.90
16158;DHT22;8184;60.256;18.694;2022-10-15T02:57:20;9.80;99.90
16158;DHT22;8184;60.256;18.694;2022-10-15T02:59:48;9.80;99.90
16158;DHT22;8184;60.256;18.694;2022-10-15T03:02:16;9.80;99.90
16158;DHT22;8184;60.256;18.694;2022-10-15T03:04:45;9.80;99.90
16158;DHT22;8184;60.256;18.694;2022-10-15T03:07:13;9.90;99.90
16158;DHT22;8184;60.256;18.694;2022-10-15T03:09:42;9.80;99.90
16158;DHT22;8184;60.256;18.694;2022-10-15T03:12:11;9.80;99.90
16158;DHT22;8184;60.256;18.694;2022-10-15T03:14:39;9.90;99.90
16158;DHT22;8184;60.256;18.694;2022-10-15T03:17:07;9.80;99.90
16158;DHT22;8184;60.256;18.694;2022-10-15T03:19:35;9.80;99.90
16158;DHT22;8184;60.256;18.694;2022-10-15T03:22:03;9.80;99.90
16158;DHT22;8184;60.256;18.694;2022-10-15T03:24:31;9.80;99.90
16158;DHT22;8184;60.256;18.694;2022-10-15T03:27:00;9.80;99.90
16158;DHT22;8184;60.256;18.694;2022-10-15T03:29:29;9.70;99.90
16158;DHT22;8184;60.256;18.694;2022-10-15T03:31:57;9.70;99.90
16158;DHT22;8184;60.256;18.694;2022-10-15T03:34:27;9.70;99.90
16158;DHT22;8184;60.256;18.694;2022-10-15T03:36:58;9.80;99.90
16158;DHT22;8184;60.256;18.694;2022-10-15T03:39:26;9.80;99.90
16158;DHT22;8184;60.256;18.694;2022-10-15T03:41:54;9.80;99.90
16158;DHT22;8184;60.256;18.694;2022-10-15T03:44:23;9.80;99.90
16158;DHT22;8184;60.256;18.694;2022-10-15T03:46:51;9.80;99.90
16158;DHT22;8184;60.256;18.694;2022-10-15T03:49:20;9.80;99.90
16158;DHT22;8184;60.256;18.694;2022-10-15T03:51:48;9.80;99.90
16158;DHT22;8184;60.256;18.694;2022-10-15T03:54:16;9.80;99.90
16158;DHT22;8184;60.256;18.694;2022-10-15T03:56:44;9.90;99.90
16158;DHT22;8184;60.256;18.694;2022-10-15T03:59:12;9.90;99.90
16158;DHT22;8184;60.256;18.694;2022-10-15T04:01:43;9.90;99.90
16158;DHT22;8184;60.256;18.694;2022-10-15T04:04:11;10.00;99.90
16158;DHT22;8184;60.256;18.694;2022-10-15T04:06:39;9.90;99.90
16158;DHT22;8184;60.256;18.694;2022-10-15T04:09:09;9.90;99.90
16158;DHT22;8184;60.256;18.694;2022-10-15T04:11:37;10.00;99.90
16158;DHT22;8184;60.256;18.694;2022-10-15T04:14:05;9.90;99.90
16158;DHT22;8184;60.256;18.694;2022-10-15T04:16:33;9.90;99.90
16158;DHT22;8184;60.256;18.694;2022-10-15T04:19:03;9.90;99.90
16158;DHT22;8184;60.256;18.694;2022-10-15T04:21:36;9.90;99.90
16158;DHT22;8184;60.256;18.694;2022-10-15T04:24:04;9.90;99.90
16158;DHT22;8184;60.256;18.694;2022-10-15T04:26:32;9.90;99.90
16158;DHT22;8184;60.256;18.694;2022-10-15T04:29:01;9.90;99.90
16158;DHT22;8184;60.256;18.694;2022-10-15T04:31:29;9.90;99.90
16158;DHT22;8184;60.256;18.694;2022-10-15T04:33:57;9.90;99.90
16158;DHT22;8184;60.256;18.694;2022-10-15T04:36:27;9.90;99.90
16158;DHT22;8184;60.256;18.694;2022-10-15T04:38:55;9.80;99.90
16158;DHT22;8184;60.256;18.694;2022-10-15T04:41:23;9.80;99.90
16158;DHT22;8184;60.256;18.694;2022-10-15T04:43:51;9.80;99.90
16158;DHT22;8184;60.256;18.694;2022-10-15T04:46:19;9.80;99.90
16158;DHT22;8184;60.256;18.694;2022-10-15T04:48:48;9.80;99.90
16158;DHT22;8184;60.256;18.694;2022-10-15T04:51:17;9.80;99.90
16158;DHT22;8184;60.256;18.694;2022-10-15T04:53:47;9.70;99.90
16158;DHT22;8184;60.256;18.694;2022-10-15T04:56:18;9.80;99.90
16158;DHT22;8184;60.256;18.694;2022-10-15T04:58:47;9.80;99.90
16158;DHT22;8184;60.256;18.694;2022-10-15T05:01:16;9.80;99.90
16158;DHT22;8184;60.256;18.694;2022-10-15T05:03:44;9.80;99.90
16158;DHT22;8184;60.256;18.694;2022-10-15T05:06:16;9.80;99.90
16158;DHT22;8184;60.256;18.694;2022-10-15T05:08:46;9.80;99.90
16158;DHT22;8184;60.256;18.694;2022-10-15T05:11:16;9.80;99.90
16158;DHT22;8184;60.256;18.694;2022-10-15T05:13:44;9.80;99.90
16158;DHT22;8184;60.256;18.694;2022-10-15T05:16:13;9.70;99.90
16158;DHT22;8184;60.256;18.694;2022-10-15T05:18:41;9.80;99.90
16158;DHT22;8184;60.256;18.694;2022-10-15T05:21:10;9.80;99.90
16158;DHT22;8184;60.256;18.694;2022-10-15T05:23:38;9.80;99.90
16158;DHT22;8184;60.256;18.694;2022-10-15T05:26:10;9.80;99.90
16158;DHT22;8184;60.256;18.694;2022-10-15T05:28:38;9.90;99.90
16158;DHT22;8184;60.256;18.694;2022-10-15T05:31:07;9.90;99.90
16158;DHT22;8184;60.256;18.694;2022-10-15T05:33:43;9.90;99.90
16158;DHT22;8184;60.256;18.694;2022-10-15T05:36:12;9.80;99.90
16158;DHT22;8184;60.256;18.694;2022-10-15T05:38:40;9.90;99.90
16158;DHT22;8184;60.256;18.694;2022-10-15T05:41:10;9.90;99.90
16158;DHT22;8184;60.256;18.694;2022-10-15T05:43:38;9.80;99.90
16158;DHT22;8184;60.256;18.694;2022-10-15T05:46:07;9.90;99.90
16158;DHT22;8184;60.256;18.694;2022-10-15T05:48:35;9.90;99.90
16158;DHT22;8184;60.256;18.694;2022-10-15T05:51:04;9.90;99.90
16158;DHT22;8184;60.256;18.694;2022-10-15T05:53:32;9.90;99.90
16158;DHT22;8184;60.256;18.694;2022-10-15T05:56:01;9.90;99.90
16158;DHT22;8184;60.256;18.694;2022-10-15T05:58:31;9.90;99.90
16158;DHT22;8184;60.256;18.694;2022-10-15T06:01:04;9.90;99.90
16158;DHT22;8184;60.256;18.694;2022-10-15T06:03:33;10.00;99.90
16158;DHT22;8184;60.256;18.694;2022-10-15T06:06:01;10.00;99.90
16158;DHT22;8184;60.256;18.694;2022-10-15T06:08:29;10.00;99.90
16158;DHT22;8184;60.256;18.694;2022-10-15T06:11:00;10.10;99.90
16158;DHT22;8184;60.256;18.694;2022-10-15T06:13:37;10.10;99.90
16158;DHT22;8184;60.256;18.694;2022-10-15T06:16:06;10.10;99.90
16158;DHT22;8184;60.256;18.694;2022-10-15T06:18:34;10.10;99.90
16158;DHT22;8184;60.256;18.694;2022-10-15T06:21:02;10.10;99.90
16158;DHT22;8184;60.256;18.694;2022-10-15T06:23:34;10.10;99.90
16158;DHT22;8184;60.256;18.694;2022-10-15T06:26:02;10.20;99.90
16158;DHT22;8184;60.256;18.694;2022-10-15T06:28:30;10.20;99.90
16158;DHT22;8184;60.256;18.694;2022-10-15T06:31:00;10.30;99.90
16158;DHT22;8184;60.256;18.694;2022-10-15T06:33:29;10.30;99.90
16158;DHT22;8184;60.256;18.694;2022-10-15T06:35:59;10.20;99.90
16158;DHT22;8184;60.256;18.694;2022-10-15T06:38:27;10.30;99.90
16158;DHT22;8184;60.256;18.694;2022-10-15T06:40:55;10.40;99.90
16158;DHT22;8184;60.256;18.694;2022-10-15T06:43:26;10.40;99.90
16158;DHT22;8184;60.256;18.694;2022-10-15T06:45:58;10.40;99.90
16158;DHT22;8184;60.256;18.694;2022-10-15T06:48:28;10.50;99.90
16158;DHT22;8184;60.256;18.694;2022-10-15T06:50:56;10.50;99.90
16158;DHT22;8184;60.256;18.694;2022-10-15T06:53:25;10.60;99.90
16158;DHT22;8184;60.256;18.694;2022-10-15T06:55:55;10.60;99.90
16158;DHT22;8184;60.256;18.694;2022-10-15T06:58:23;10.70;99.90
16158;DHT22;8184;60.256;18.694;2022-10-15T07:00:51;10.60;99.90
16158;DHT22;8184;60.256;18.694;2022-10-15T07:03:19;10.80;99.90
16158;DHT22;8184;60.256;18.694;2022-10-15T07:05:49;10.80;99.90
16158;DHT22;8184;60.256;18.694;2022-10-15T07:08:17;10.80;99.90
16158;DHT22;8184;60.256;18.694;2022-10-15T07:10:45;10.90;99.90
16158;DHT22;8184;60.256;18.694;2022-10-15T07:13:13;10.90;99.90
16158;DHT22;8184;60.256;18.694;2022-10-15T07:15:41;10.90;99.90
16158;DHT22;8184;60.256;18.694;2022-10-15T07:18:11;11.00;99.90
16158;DHT22;8184;60.256;18.694;2022-10-15T07:20:40;10.90;99.90
16158;DHT22;8184;60.256;18.694;2022-10-15T07:23:14;11.00;99.90
16158;DHT22;8184;60.256;18.694;2022-10-15T07:25:43;11.00;99.90
16158;DHT22;8184;60.256;18.694;2022-10-15T07:28:11;11.00;99.90
16158;DHT22;8184;60.256;18.694;2022-10-15T07:30:39;11.10;99.90
16158;DHT22;8184;60.256;18.694;2022-10-15T07:33:10;11.10;99.90
16158;DHT22;8184;60.256;18.694;2022-10-15T07:35:38;11.10;99.90
16158;DHT22;8184;60.256;18.694;2022-10-15T07:38:06;11.10;99.90
16158;DHT22;8184;60.256;18.694;2022-10-15T07:40:36;11.20;99.90
16158;DHT22;8184;60.256;18.694;2022-10-15T07:43:04;11.20;99.90
16158;DHT22;8184;60.256;18.694;2022-10-15T07:45:32;11.30;99.90
16158;DHT22;8184;60.256;18.694;2022-10-15T07:48:01;11.40;99.90
16158;DHT22;8184;60.256;18.694;2022-10-15T07:50:29;11.40;99.90
16158;DHT22;8184;60.256;18.694;2022-10-15T07:53:02;11.50;99.90
16158;DHT22;8184;60.256;18.694;2022-10-15T07:55:30;11.40;99.90
16158;DHT22;8184;60.256;18.694;2022-10-15T07:58:00;11.50;99.90
16158;DHT22;8184;60.256;18.694;2022-10-15T08:00:31;11.50;99.90
16158;DHT22;8184;60.256;18.694;2022-10-15T08:02:59;11.50;99.90
16158;DHT22;8184;60.256;18.694;2022-10-15T08:05:27;11.50;99.90
16158;DHT22;8184;60.256;18.694;2022-10-15T08:07:55;11.60;99.90
16158;DHT22;8184;60.256;18.694;2022-10-15T08:10:23;11.50;99.90
16158;DHT22;8184;60.256;18.694;2022-10-15T08:12:52;11.60;99.90
16158;DHT22;8184;60.256;18.694;2022-10-15T08:15:21;11.50;99.90
16158;DHT22;8184;60.256;18.694;2022-10-15T08:17:51;11.60;99.90
16158;DHT22;8184;60.256;18.694;2022-10-15T08:20:20;11.60;99.90
16158;DHT22;8184;60.256;18.694;2022-10-15T08:22:48;11.60;99.90
16158;DHT22;8184;60.256;18.694;2022-10-15T08:25:16;11.70;99.90
16158;DHT22;8184;60.256;18.694;2022-10-15T08:27:44;11.70;99.90
16158;DHT22;8184;60.256;18.694;2022-10-15T08:30:12;11.70;99.90
16158;DHT22;8184;60.256;18.694;2022-10-15T08:32:44;11.70;99.90
16158;DHT22;8184;60.256;18.694;2022-10-15T08:35:12;11.80;99.90
16158;DHT22;8184;60.256;18.694;2022-10-15T08:37:41;11.70;99.90
16158;DHT22;8184;60.256;18.694;2022-10-15T08:40:09;11.80;99.90
16158;DHT22;8184;60.256;18.694;2022-10-15T08:42:40;11.80;99.90
16158;DHT22;8184;60.256;18.694;2022-10-15T08:45:10;11.80;99.90
16158;DHT22;8184;60.256;18.694;2022-10-15T08:47:40;11.80;99.90
16158;DHT22;8184;60.256;18.694;2022-10-15T08:50:15;11.90;99.90
16158;DHT22;8184;60.256;18.694;2022-10-15T08:52:45;11.90;99.90
16158;DHT22;8184;60.256;18.694;2022-10-15T08:55:14;11.90;99.90
16158;DHT22;8184;60.256;18.694;2022-10-15T08:57:43;11.90;99.90
16158;DHT22;8184;60.256;18.694;2022-10-15T09:00:16;11.90;99.90
16158;DHT22;8184;60.256;18.694;2022-10-15T09:02:47;11.90;99.90
16158;DHT22;8184;60.256;18.694;2022-10-15T09:05:23;12.00;99.90
16158;DHT22;8184;60.256;18.694;2022-10-15T09:07:55;12.00;99.90
16158;DHT22;8184;60.256;18.694;2022-10-15T09:10:26;12.00;99.90
16158;DHT22;8184;60.256;18.694;2022-10-15T09:12:58;12.00;99.90
16158;DHT22;8184;60.256;18.694;2022-10-15T09:15:30;12.00;99.90
16158;DHT22;8184;60.256;18.694;2022-10-15T09:17:59;12.10;99.90
16158;DHT22;8184;60.256;18.694;2022-10-15T09:20:31;12.10;99.90
16158;DHT22;8184;60.256;18.694;2022-10-15T09:23:01;12.20;99.90
16158;DHT22;8184;60.256;18.694;2022-10-15T09:25:31;12.30;99.90
16158;DHT22;8184;60.256;18.694;2022-10-15T09:28:05;12.40;99.90
16158;DHT22;8184;60.256;18.694;2022-10-15T09:30:36;12.50;99.90
16158;DHT22;8184;60.256;18.694;2022-10-15T09:33:07;12.50;99.90
16158;DHT22;8184;60.256;18.694;2022-10-15T09:35:42;12.50;99.90
16158;DHT22;8184;60.256;18.694;2022-10-15T09:38:14;12.40;99.90
16158;DHT22;8184;60.256;18.694;2022-10-15T09:40:51;12.40;99.90
16158;DHT22;8184;60.256;18.694;2022-10-15T09:43:23;12.50;99.90
16158;DHT22;8184;60.256;18.694;2022-10-15T09:45:56;12.60;99.90
16158;DHT22;8184;60.256;18.694;2022-10-15T09:48:29;12.70;99.90
16158;DHT22;8184;60.256;18.694;2022-10-15T09:51:01;12.70;99.90
16158;DHT22;8184;60.256;18.694;2022-10-15T09:53:34;12.80;99.90
16158;DHT22;8184;60.256;18.694;2022-10-15T09:56:08;12.80;99.90
16158;DHT22;8184;60.256;18.694;2022-10-15T09:58:40;13.00;99.90
16158;DHT22;8184;60.256;18.694;2022-10-15T10:01:15;13.10;99.90
16158;DHT22;8184;60.256;18.694;2022-10-15T10:03:44;13.10;99.90
16158;DHT22;8184;60.256;18.694;2022-10-15T10:06:13;13.20;99.90
16158;DHT22;8184;60.256;18.694;2022-10-15T10:08:46;13.10;99.90
16158;DHT22;8184;60.256;18.694;2022-10-15T10:11:15;13.10;99.90
16158;DHT22;8184;60.256;18.694;2022-10-15T10:13:44;13.20;99.90
16158;DHT22;8184;60.256;18.694;2022-10-15T10:16:13;13.20;99.90
16158;DHT22;8184;60.256;18.694;2022-10-15T10:18:42;13.20;99.90
16158;DHT22;8184;60.256;18.694;2022-10-15T10:21:21;13.30;99.90
16158;DHT22;8184;60.256;18.694;2022-10-15T10:23:50;13.30;99.90
16158;DHT22;8184;60.256;18.694;2022-10-15T10:26:18;13.30;99.90
16158;DHT22;8184;60.256;18.694;2022-10-15T10:28:50;13.20;99.90
16158;DHT22;8184;60.256;18.694;2022-10-15T10:31:26;13.20;99.90
16158;DHT22;8184;60.256;18.694;2022-10-15T10:33:55;13.30;99.90
16158;DHT22;8184;60.256;18.694;2022-10-15T10:36:25;13.40;99.90
16158;DHT22;8184;60.256;18.694;2022-10-15T10:38:54;13.60;99.90
16158;DHT22;8184;60.256;18.694;2022-10-15T10:41:23;13.60;99.90
16158;DHT22;8184;60.256;18.694;2022-10-15T10:44:17;13.70;99.90
16158;DHT22;8184;60.256;18.694;2022-10-15T10:46:56;13.70;99.90
16158;DHT22;8184;60.256;18.694;2022-10-15T10:49:31;13.50;99.90
16158;DHT22;8184;60.256;18.694;2022-10-15T10:52:01;13.40;99.90
16158;DHT22;8184;60.256;18.694;2022-10-15T10:54:29;13.30;99.90
16158;DHT22;8184;60.256;18.694;2022-10-15T10:56:59;13.40;99.90
16158;DHT22;8184;60.256;18.694;2022-10-15T10:59:28;13.50;99.90
16158;DHT22;8184;60.256;18.694;2022-10-15T11:01:58;13.60;99.90
16158;DHT22;8184;60.256;18.694;2022-10-15T11:04:29;13.70;99.90
16158;DHT22;8184;60.256;18.694;2022-10-15T11:07:01;13.90;99.90
16158;DHT22;8184;60.256;18.694;2022-10-15T11:09:35;13.90;99.90
16158;DHT22;8184;60.256;18.694;2022-10-15T11:12:07;13.90;99.90
16158;DHT22;8184;60.256;18.694;2022-10-15T11:14:41;13.90;99.90
16158;DHT22;8184;60.256;18.694;2022-10-15T11:17:13;13.90;99.90
16158;DHT22;8184;60.256;18.694;2022-10-15T11:19:46;13.90;99.90
16158;DHT22;8184;60.256;18.694;2022-10-15T11:22:50;13.90;99.90
16158;DHT22;8184;60.256;18.694;2022-10-15T11:25:21;13.90;99.90
16158;DHT22;8184;60.256;18.694;2022-10-15T11:27:52;13.90;99.90
16158;DHT22;8184;60.256;18.694;2022-10-15T11:30:27;13.90;99.90
16158;DHT22;8184;60.256;18.694;2022-10-15T11:32:59;14.00;99.90
16158;DHT22;8184;60.256;18.694;2022-10-15T11:35:36;14.10;99.90
16158;DHT22;8184;60.256;18.694;2022-10-15T11:38:24;14.10;99.90
16158;DHT22;8184;60.256;18.694;2022-10-15T11:41:02;14.20;99.90
16158;DHT22;8184;60.256;18.694;2022-10-15T11:43:40;14.30;99.90
16158;DHT22;8184;60.256;18.694;2022-10-15T11:46:11;14.40;99.90
16158;DHT22;8184;60.256;18.694;2022-10-15T11:48:45;14.50;99.90
16158;DHT22;8184;60.256;18.694;2022-10-15T11:51:19;14.60;99.90
16158;DHT22;8184;60.256;18.694;2022-10-15T11:53:56;14.50;99.90
16158;DHT22;8184;60.256;18.694;2022-10-15T11:56:31;14.50;99.90
16158;DHT22;8184;60.256;18.694;2022-10-15T11:59:09;14.60;99.90
16158;DHT22;8184;60.256;18.694;2022-10-15T12:01:42;14.70;99.90
16158;DHT22;8184;60.256;18.694;2022-10-15T12:04:13;14.80;99.90
16158;DHT22;8184;60.256;18.694;2022-10-15T12:06:44;14.70;99.90
16158;DHT22;8184;60.256;18.694;2022-10-15T12:09:20;14.50;99.90
16158;DHT22;8184;60.256;18.694;2022-10-15T12:11:52;14.40;99.90
16158;DHT22;8184;60.256;18.694;2022-10-15T12:14:29;14.30;99.90
16158;DHT22;8184;60.256;18.694;2022-10-15T12:17:02;14.30;99.90
16158;DHT22;8184;60.256;18.694;2022-10-15T12:19:34;14.20;99.90
16158;DHT22;8184;60.256;18.694;2022-10-15T12:22:09;14.30;99.90
16158;DHT22;8184;60.256;18.694;2022-10-15T12:27:32;14.20;99.90
16158;DHT22;8184;60.256;18.694;2022-10-15T12:30:10;14.20;99.90
16158;DHT22;8184;60.256;18.694;2022-10-15T12:32:40;14.10;99.90
16158;DHT22;8184;60.256;18.694;2022-10-15T12:35:17;14.20;99.90
16158;DHT22;8184;60.256;18.694;2022-10-15T12:37:51;14.40;99.90
16158;DHT22;8184;60.256;18.694;2022-10-15T12:40:23;14.40;99.90
16158;DHT22;8184;60.256;18.694;2022-10-15T12:42:54;14.30;99.90
16158;DHT22;8184;60.256;18.694;2022-10-15T12:45:27;14.20;99.90
16158;DHT22;8184;60.256;18.694;2022-10-15T12:50:51;14.00;99.90
16158;DHT22;8184;60.256;18.694;2022-10-15T12:53:40;13.90;99.90
16158;DHT22;8184;60.256;18.694;2022-10-15T12:56:12;13.90;99.90
16158;DHT22;8184;60.256;18.694;2022-10-15T12:58:49;13.90;99.90
16158;DHT22;8184;60.256;18.694;2022-10-15T13:01:27;13.90;99.90
16158;DHT22;8184;60.256;18.694;2022-10-15T13:03:57;13.90;99.90
16158;DHT22;8184;60.256;18.694;2022-10-15T13:06:30;13.90;99.90
16158;DHT22;8184;60.256;18.694;2022-10-15T13:09:02;13.90;99.90
16158;DHT22;8184;60.256;18.694;2022-10-15T13:11:34;13.90;99.90
16158;DHT22;8184;60.256;18.694;2022-10-15T13:14:10;14.00;99.90
16158;DHT22;8184;60.256;18.694;2022-10-15T13:16:42;14.00;99.90
16158;DHT22;8184;60.256;18.694;2022-10-15T13:19:16;14.00;99.90
16158;DHT22;8184;60.256;18.694;2022-10-15T13:21:47;14.00;99.90
16158;DHT22;8184;60.256;18.694;2022-10-15T13:24:17;13.90;99.90
16158;DHT22;8184;60.256;18.694;2022-10-15T13:26:45;13.80;99.90
16158;DHT22;8184;60.256;18.694;2022-10-15T13:29:16;13.70;99.90
16158;DHT22;8184;60.256;18.694;2022-10-15T13:31:44;13.70;99.90
16158;DHT22;8184;60.256;18.694;2022-10-15T13:34:17;13.70;99.90
16158;DHT22;8184;60.256;18.694;2022-10-15T13:36:47;13.60;99.90
16158;DHT22;8184;60.256;18.694;2022-10-15T13:39:23;13.50;99.90
16158;DHT22;8184;60.256;18.694;2022-10-15T13:41:55;13.50;99.90
16158;DHT22;8184;60.256;18.694;2022-10-15T13:44:31;13.40;99.90
16158;DHT22;8184;60.256;18.694;2022-10-15T13:47:00;13.50;99.90
16158;DHT22;8184;60.256;18.694;2022-10-15T13:49:28;13.40;99.90
16158;DHT22;8184;60.256;18.694;2022-10-15T13:51:57;13.30;99.90
16158;DHT22;8184;60.256;18.694;2022-10-15T13:54:27;13.30;99.90
16158;DHT22;8184;60.256;18.694;2022-10-15T13:56:57;13.20;99.90
16158;DHT22;8184;60.256;18.694;2022-10-15T13:59:28;13.20;99.90
16158;DHT22;8184;60.256;18.694;2022-10-15T14:01:59;13.20;99.90
16158;DHT22;8184;60.256;18.694;2022-10-15T14:04:30;13.20;99.90
16158;DHT22;8184;60.256;18.694;2022-10-15T14:07:01;13.10;99.90
16158;DHT22;8184;60.256;18.694;2022-10-15T14:09:30;13.10;99.90
16158;DHT22;8184;60.256;18.694;2022-10-15T14:11:59;13.10;99.90
16158;DHT22;8184;60.256;18.694;2022-10-15T14:14:30;13.10;99.90
16158;DHT22;8184;60.256;18.694;2022-10-15T14:17:01;13.10;99.90
16158;DHT22;8184;60.256;18.694;2022-10-15T14:19:30;13.10;99.90
16158;DHT22;8184;60.256;18.694;2022-10-15T14:21:59;13.10;99.90
16158;DHT22;8184;60.256;18.694;2022-10-15T14:24:29;13.00;99.90
16158;DHT22;8184;60.256;18.694;2022-10-15T14:27:02;13.00;99.90
16158;DHT22;8184;60.256;18.694;2022-10-15T14:29:35;13.00;99.90
16158;DHT22;8184;60.256;18.694;2022-10-15T14:32:17;13.00;99.90
16158;DHT22;8184;60.256;18.694;2022-10-15T14:34:46;12.90;99.90
16158;DHT22;8184;60.256;18.694;2022-10-15T14:37:27;12.90;99.90
16158;DHT22;8184;60.256;18.694;2022-10-15T14:40:01;12.90;99.90
16158;DHT22;8184;60.256;18.694;2022-10-15T14:42:30;12.80;99.90
16158;DHT22;8184;60.256;18.694;2022-10-15T14:45:09;12.80;99.90
16158;DHT22;8184;60.256;18.694;2022-10-15T14:47:39;12.80;99.90
16158;DHT22;8184;60.256;18.694;2022-10-15T14:50:08;12.70;99.90
16158;DHT22;8184;60.256;18.694;2022-10-15T14:52:39;12.70;99.90
16158;DHT22;8184;60.256;18.694;2022-10-15T14:55:13;12.80;99.90
16158;DHT22;8184;60.256;18.694;2022-10-15T14:57:45;12.70;99.90
16158;DHT22;8184;60.256;18.694;2022-10-15T15:00:16;12.80;99.90
16158;DHT22;8184;60.256;18.694;2022-10-15T15:02:48;12.70;99.90
16158;DHT22;8184;60.256;18.694;2022-10-15T15:05:18;12.70;99.90
16158;DHT22;8184;60.256;18.694;2022-10-15T15:07:47;12.70;99.90
16158;DHT22;8184;60.256;18.694;2022-10-15T15:10:15;12.70;99.90
16158;DHT22;8184;60.256;18.694;2022-10-15T15:12:44;12.70;99.90
16158;DHT22;8184;60.256;18.694;2022-10-15T15:15:13;12.70;99.90
16158;DHT22;8184;60.256;18.694;2022-10-15T15:17:41;12.70;99.90
16158;DHT22;8184;60.256;18.694;2022-10-15T15:20:12;12.70;99.90
16158;DHT22;8184;60.256;18.694;2022-10-15T15:22:40;12.60;99.90
16158;DHT22;8184;60.256;18.694;2022-10-15T15:25:12;12.60;99.90
16158;DHT22;8184;60.256;18.694;2022-10-15T15:27:41;12.60;99.90
16158;DHT22;8184;60.256;18.694;2022-10-15T15:30:13;12.60;99.90
16158;DHT22;8184;60.256;18.694;2022-10-15T15:32:41;12.60;99.90
16158;DHT22;8184;60.256;18.694;2022-10-15T15:35:15;12.60;99.90
16158;DHT22;8184;60.256;18.694;2022-10-15T15:37:45;12.60;99.90
16158;DHT22;8184;60.256;18.694;2022-10-15T15:40:13;12.60;99.90
16158;DHT22;8184;60.256;18.694;2022-10-15T15:42:42;12.60;99.90
16158;DHT22;8184;60.256;18.694;2022-10-15T15:45:14;12.60;99.90
16158;DHT22;8184;60.256;18.694;2022-10-15T15:47:43;12.50;99.90
16158;DHT22;8184;60.256;18.694;2022-10-15T15:50:11;12.60;99.90
16158;DHT22;8184;60.256;18.694;2022-10-15T15:52:41;12.60;99.90
16158;DHT22;8184;60.256;18.694;2022-10-15T15:55:09;12.50;99.90
16158;DHT22;8184;60.256;18.694;2022-10-15T15:57:38;12.40;99.90
16158;DHT22;8184;60.256;18.694;2022-10-15T16:00:07;12.40;99.90
16158;DHT22;8184;60.256;18.694;2022-10-15T16:02:36;12.50;99.90
16158;DHT22;8184;60.256;18.694;2022-10-15T16:05:05;12.50;99.90
16158;DHT22;8184;60.256;18.694;2022-10-15T16:07:34;12.50;99.90